Time,TemperatureF,DewpointF,PressureIn,WindDirection,WindDirectionDegrees,WindSpeedMPH,WindSpeedGustMPH,Humidity,HourlyPrecipIn,Conditions,Clouds,dailyrainin,SolarRadiationWatts/m^2,SoftwareType,DateUTC
2013-07-06 00:02:00,61.1,53.0,29.69,WNW,287,0.0,3.0,74,0.00,,,0.00,0,weatherlink.com 1.10,2013-07-06 07:02:00,
2013-07-06 00:17:00,60.3,52.0,29.70,WNW,285,3.0,5.0,74,0.00,,,0.00,0,weatherlink.com 1.10,2013-07-06 07:17:00,
2013-07-06 00:32:00,60.0,52.0,29.69,West,279,1.0,7.0,75,0.00,,,0.00,0,weatherlink.com 1.10,2013-07-06 07:32:00,
2013-07-06 00:47:00,60.0,52.0,29.69,West,261,4.0,6.0,75,0.00,,,0.00,0,weatherlink.com 1.10,2013-07-06 07:47:00,
2013-07-06 01:02:00,59.7,52.0,29.70,West,269,1.0,4.0,76,0.00,,,0.00,0,weatherlink.com 1.10,2013-07-06 08:02:00,
2013-07-06 01:17:00,59.4,52.0,29.70,WNW,298,0.0,2.0,77,0.00,,,0.00,0,weatherlink.com 1.10,2013-07-06 08:17:00,
2013-07-06 01:32:00,58.8,52.0,29.70,WNW,298,0.0,1.0,78,0.00,,,0.00,0,weatherlink.com 1.10,2013-07-06 08:32:00,
2013-07-06 01:47:00,58.2,52.0,29.70,WNW,298,0.0,0.0,80,0.00,,,0.00,0,weatherlink.com 1.10,2013-07-06 08:47:00,
2013-07-06 02:02:00,57.5,52.0,29.70,WNW,298,1.0,2.0,81,0.00,,,0.00,0,weatherlink.com 1.10,2013-07-06 09:02:00,
2013-07-06 02:17:00,56.9,52.0,29.70,WNW,303,2.0,4.0,83,0.00,,,0.00,0,weatherlink.com 1.10,2013-07-06 09:17:00,
2013-07-06 02:32:00,56.7,52.0,29.71,NW,304,1.0,4.0,84,0.00,,,0.00,0,weatherlink.com 1.10,2013-07-06 09:32:00,
2013-07-06 02:47:00,56.7,52.0,29.71,NW,304,0.0,4.0,85,0.00,,,0.00,0,weatherlink.com 1.10,2013-07-06 09:47:00,
2013-07-06 03:02:00,56.7,52.0,29.71,NW,320,5.0,6.0,85,0.00,,,0.00,0,weatherlink.com 1.10,2013-07-06 10:02:00,
2013-07-06 03:17:00,56.8,52.0,29.71,NW,312,2.0,8.0,85,0.00,,,0.00,0,weatherlink.com 1.10,2013-07-06 10:17:00,
2013-07-06 03:32:00,56.8,52.0,29.71,NW,306,2.0,6.0,85,0.00,,,0.00,0,weatherlink.com 1.10,2013-07-06 10:32:00,
2013-07-06 03:47:00,56.8,52.0,29.71,WNW,296,4.0,6.0,85,0.00,,,0.00,0,weatherlink.com 1.10,2013-07-06 10:47:00,
2013-07-06 04:02:00,56.7,52.0,29.71,NW,317,5.0,8.0,85,0.00,,,0.00,0,weatherlink.com 1.10,2013-07-06 11:02:00,
2013-07-06 04:17:00,56.8,52.0,29.71,WNW,290,6.0,8.0,85,0.00,,,0.00,0,weatherlink.com 1.10,2013-07-06 11:17:00,
2013-07-06 04:32:00,56.8,53.0,29.71,NW,319,3.0,8.0,86,0.00,,,0.00,0,weatherlink.com 1.10,2013-07-06 11:32:00,
2013-07-06 04:48:00,56.6,53.0,29.71,WNW,302,4.0,7.0,86,0.00,,,0.00,0,weatherlink.com 1.10,2013-07-06 11:48:00,
2013-07-06 05:03:00,56.5,52.0,29.71,NW,306,2.0,6.0,86,0.00,,,0.00,0,weatherlink.com 1.10,2013-07-06 12:03:00,
2013-07-06 05:18:00,56.3,52.0,29.72,WNW,287,4.0,5.0,86,0.00,,,0.00,0,weatherlink.com 1.10,2013-07-06 12:18:00,
2013-07-06 05:33:00,56.2,52.0,29.72,NW,308,2.0,6.0,87,0.00,,,0.00,0,weatherlink.com 1.10,2013-07-06 12:33:00,
2013-07-06 05:48:00,56.2,52.0,29.73,NW,312,1.0,7.0,87,0.00,,,0.00,0,weatherlink.com 1.10,2013-07-06 12:48:00,
2013-07-06 06:03:00,56.2,52.0,29.73,NW,315,3.0,7.0,87,0.00,,,0.00,9,weatherlink.com 1.10,2013-07-06 13:03:00,
2013-07-06 06:18:00,56.3,53.0,29.73,West,271,2.0,6.0,87,0.00,,,0.00,21,weatherlink.com 1.10,2013-07-06 13:18:00,
2013-07-06 06:33:00,56.4,52.0,29.74,WNW,284,0.0,5.0,86,0.00,,,0.00,39,weatherlink.com 1.10,2013-07-06 13:33:00,
2013-07-06 06:48:00,56.8,53.0,29.74,NW,325,6.0,7.0,86,0.00,,,0.00,76,weatherlink.com 1.10,2013-07-06 13:48:00,
2013-07-06 07:03:00,57.5,53.0,29.74,WNW,296,2.0,8.0,86,0.00,,,0.00,139,weatherlink.com 1.10,2013-07-06 14:03:00,
2013-07-06 07:18:00,58.2,53.0,29.74,NW,306,2.0,9.0,84,0.00,,,0.00,200,weatherlink.com 1.10,2013-07-06 14:18:00,
2013-07-06 07:33:00,59.3,55.0,29.75,WNW,293,4.0,7.0,84,0.00,,,0.00,251,weatherlink.com 1.10,2013-07-06 14:33:00,
2013-07-06 07:48:00,60.3,54.0,29.75,WNW,296,4.0,10.0,81,0.00,,,0.00,301,weatherlink.com 1.10,2013-07-06 14:48:00,
2013-07-06 08:03:00,61.5,55.0,29.75,West,268,6.0,8.0,79,0.00,,,0.00,348,weatherlink.com 1.10,2013-07-06 15:03:00,
2013-07-06 08:18:00,62.9,56.0,29.76,WNW,301,4.0,9.0,78,0.00,,,0.00,396,weatherlink.com 1.10,2013-07-06 15:18:00,
2013-07-06 08:33:00,64.1,56.0,29.76,West,279,3.0,8.0,74,0.00,,,0.00,452,weatherlink.com 1.10,2013-07-06 15:33:00,
2013-07-06 08:48:00,65.4,57.0,29.76,West,273,3.0,7.0,73,0.00,,,0.00,497,weatherlink.com 1.10,2013-07-06 15:48:00,
2013-07-06 09:03:00,67.1,57.0,29.76,NW,309,3.0,7.0,71,0.00,,,0.00,540,weatherlink.com 1.10,2013-07-06 16:03:00,
2013-07-06 09:18:00,68.7,57.0,29.76,West,271,5.0,6.0,67,0.00,,,0.00,591,weatherlink.com 1.10,2013-07-06 16:18:00,
2013-07-06 09:33:00,69.9,58.0,29.76,West,280,3.0,8.0,66,0.00,,,0.00,626,weatherlink.com 1.10,2013-07-06 16:33:00,
2013-07-06 09:49:00,71.0,58.0,29.76,West,279,5.0,8.0,64,0.00,,,0.00,671,weatherlink.com 1.10,2013-07-06 16:49:00,
2013-07-06 10:19:00,73.8,59.0,29.76,NW,307,5.0,7.0,60,0.00,,,0.00,107,weatherlink.com 1.10,2013-07-06 17:19:00,
2013-07-06 10:49:00,76.1,61.0,29.76,West,267,6.0,9.0,59,0.00,,,0.00,113,weatherlink.com 1.10,2013-07-06 17:49:00,
2013-07-06 11:04:00,77.3,60.0,29.76,West,276,4.0,9.0,56,0.00,,,0.00,125,weatherlink.com 1.10,2013-07-06 18:04:00,
2013-07-06 11:20:00,78.2,60.0,29.76,WNW,285,0.0,6.0,53,0.00,,,0.00,888,weatherlink.com 1.10,2013-07-06 18:20:00,
2013-07-06 11:34:00,79.6,61.0,29.75,WSW,256,0.0,7.0,53,0.00,,,0.00,912,weatherlink.com 1.10,2013-07-06 18:34:00,
2013-07-06 11:49:00,80.2,61.0,29.75,West,281,6.0,8.0,52,0.00,,,0.00,937,weatherlink.com 1.10,2013-07-06 18:49:00,
2013-07-06 12:34:00,81.7,62.0,29.75,West,261,3.0,9.0,51,0.00,,,0.00,983,weatherlink.com 1.10,2013-07-06 19:34:00,
2013-07-06 13:04:00,84.1,62.0,29.74,NW,304,2.0,7.0,47,0.00,,,0.00,1005,weatherlink.com 1.10,2013-07-06 20:04:00,
2013-07-06 13:34:00,85.8,63.0,29.73,WNW,283,5.0,7.0,46,0.00,,,0.00,1009,weatherlink.com 1.10,2013-07-06 20:34:00,
2013-07-06 13:49:00,86.0,62.0,29.73,WSW,249,5.0,7.0,44,0.00,,,0.00,1005,weatherlink.com 1.10,2013-07-06 20:49:00,
2013-07-06 14:04:00,86.3,62.0,29.72,WNW,299,5.0,8.0,44,0.00,,,0.00,990,weatherlink.com 1.10,2013-07-06 21:04:00,
2013-07-06 14:19:00,86.8,62.0,29.72,WNW,282,3.0,6.0,43,0.00,,,0.00,981,weatherlink.com 1.10,2013-07-06 21:19:00,
2013-07-06 14:34:00,87.2,62.0,29.71,West,263,2.0,8.0,43,0.00,,,0.00,963,weatherlink.com 1.10,2013-07-06 21:34:00,
2013-07-06 15:20:00,88.0,61.0,29.70,NW,309,3.0,9.0,40,0.00,,,0.00,898,weatherlink.com 1.10,2013-07-06 22:20:00,
2013-07-06 15:35:00,87.9,62.0,29.70,NW,311,4.0,9.0,42,0.00,,,0.00,875,weatherlink.com 1.10,2013-07-06 22:35:00,
2013-07-06 15:50:00,87.7,62.0,29.70,WSW,256,6.0,9.0,42,0.00,,,0.00,835,weatherlink.com 1.10,2013-07-06 22:50:00,
2013-07-06 16:05:00,87.5,62.0,29.70,West,265,2.0,10.0,42,0.00,,,0.00,504,weatherlink.com 1.10,2013-07-06 23:05:00,
2013-07-06 16:20:00,87.3,63.0,29.69,WNW,282,3.0,9.0,44,0.00,,,0.00,770,weatherlink.com 1.10,2013-07-06 23:20:00,
2013-07-06 16:50:00,86.8,60.0,29.69,WNW,288,6.0,8.0,41,0.00,,,0.00,687,weatherlink.com 1.10,2013-07-06 23:50:00,
2013-07-06 17:05:00,86.2,59.0,29.68,WNW,302,6.0,9.0,40,0.00,,,0.00,638,weatherlink.com 1.10,2013-07-07 00:05:00,
2013-07-06 17:35:00,85.0,58.0,29.67,NNW,346,8.0,10.0,40,0.00,,,0.00,100,weatherlink.com 1.10,2013-07-07 00:35:00,
2013-07-06 17:50:00,84.2,55.0,29.67,WNW,287,5.0,12.0,37,0.00,,,0.00,251,weatherlink.com 1.10,2013-07-07 00:50:00,
2013-07-06 18:05:00,83.4,54.0,29.67,WNW,298,8.0,11.0,37,0.00,,,0.00,468,weatherlink.com 1.10,2013-07-07 01:05:00,
2013-07-06 18:35:00,81.9,55.0,29.67,NW,306,11.0,11.0,40,0.00,,,0.00,371,weatherlink.com 1.10,2013-07-07 01:35:00,
2013-07-06 19:20:00,78.9,53.0,29.67,WNW,292,5.0,11.0,40,0.00,,,0.00,47,weatherlink.com 1.10,2013-07-07 02:20:00,
2013-07-06 19:35:00,77.5,54.0,29.67,WNW,292,2.0,7.0,45,0.00,,,0.00,42,weatherlink.com 1.10,2013-07-07 02:35:00,
2013-07-06 19:50:00,76.1,55.0,29.67,WNW,292,7.0,10.0,48,0.00,,,0.00,26,weatherlink.com 1.10,2013-07-07 02:50:00,
2013-07-06 20:05:00,74.5,55.0,29.68,WNW,298,6.0,10.0,51,0.00,,,0.00,16,weatherlink.com 1.10,2013-07-07 03:05:00,
2013-07-06 20:20:00,73.0,55.0,29.68,West,275,4.0,7.0,53,0.00,,,0.00,7,weatherlink.com 1.10,2013-07-07 03:20:00,
2013-07-06 20:50:00,70.0,55.0,29.69,NW,308,4.0,6.0,59,0.00,,,0.00,0,weatherlink.com 1.10,2013-07-07 03:50:00,
2013-07-06 21:05:00,68.9,55.0,29.69,WNW,287,2.0,5.0,61,0.00,,,0.00,0,weatherlink.com 1.10,2013-07-07 04:05:00,
2013-07-06 21:20:00,67.7,54.0,29.69,WNW,296,2.0,8.0,61,0.00,,,0.00,0,weatherlink.com 1.10,2013-07-07 04:20:00,
2013-07-06 21:35:00,66.8,53.0,29.70,WNW,292,3.0,6.0,61,0.00,,,0.00,0,weatherlink.com 1.10,2013-07-07 04:35:00,
2013-07-06 21:50:00,65.7,52.0,29.70,WNW,299,5.0,11.0,61,0.00,,,0.00,0,weatherlink.com 1.10,2013-07-07 04:50:00,
2013-07-06 22:05:00,64.7,52.0,29.71,WNW,285,5.0,11.0,64,0.00,,,0.00,0,weatherlink.com 1.10,2013-07-07 05:05:00,
2013-07-06 22:20:00,64.0,53.0,29.71,WNW,290,2.0,5.0,67,0.00,,,0.00,0,weatherlink.com 1.10,2013-07-07 05:20:00,
2013-07-06 22:35:00,62.9,53.0,29.72,West,277,2.0,5.0,69,0.00,,,0.00,0,weatherlink.com 1.10,2013-07-07 05:35:00,
2013-07-06 22:50:00,62.1,53.0,29.72,WSW,246,1.0,4.0,72,0.00,,,0.00,0,weatherlink.com 1.10,2013-07-07 05:50:00,
2013-07-06 23:05:00,61.3,53.0,29.72,West,271,4.0,4.0,73,0.00,,,0.00,0,weatherlink.com 1.10,2013-07-07 06:05:00,
2013-07-06 23:20:00,60.8,53.0,29.72,West,275,0.0,4.0,75,0.00,,,0.00,0,weatherlink.com 1.10,2013-07-07 06:20:00,
2013-07-06 23:35:00,60.3,53.0,29.73,West,275,2.0,4.0,76,0.00,,,0.00,0,weatherlink.com 1.10,2013-07-07 06:35:00,
2013-07-06 23:50:00,60.1,53.0,29.73,WNW,283,2.0,6.0,77,0.00,,,0.00,0,weatherlink.com 1.10,2013-07-07 06:50:00,